Time;durP1;ratioP1;P1;durP2;ratioP2;P2;SDS_P1;SDS_P2;PMS_P1;PMS_P2;Temp;Humidity;BMP_temperature;BMP_pressure;BME280_temperature;BME280_humidity;BME280_pressure;Samples;Min_cycle;Max_cycle;Signal;HPM_P1;HPM_P2
2022/11/24 00:01:14;;;;;;;7.10;2.10;;;9.80;72.00;;;;;;5085227;28;20029;-62
2022/11/24 00:03:40;;;;;;;14.25;2.30;;;9.70;72.10;;;;;;5078842;28;20024;-62
2022/11/24 00:06:09;;;;;;;10.75;2.08;;;9.80;72.10;;;;;;5080515;28;20093;-63
2022/11/24 00:08:36;;;;;;;7.43;2.10;;;9.70;72.20;;;;;;5090050;28;20021;-62
2022/11/24 00:11:04;;;;;;;8.75;2.30;;;9.70;72.20;;;;;;5077818;28;20051;-62
2022/11/24 00:13:29;;;;;;;7.72;2.20;;;9.70;72.20;;;;;;5084500;28;20092;-63
2022/11/24 00:16:10;;;;;;;7.75;2.50;;;9.60;72.10;;;;;;5084155;28;20067;-61
2022/11/24 00:18:37;;;;;;;7.53;2.33;;;9.60;72.30;;;;;;5084044;28;20035;-60
2022/11/24 00:21:03;;;;;;;8.15;2.17;;;9.50;72.10;;;;;;5089037;28;20030;-61
2022/11/24 00:23:29;;;;;;;7.65;2.67;;;9.50;72.20;;;;;;5091050;28;20052;-61
2022/11/24 00:25:54;;;;;;;11.20;2.20;;;9.50;72.20;;;;;;5080453;28;20031;-61
2022/11/24 00:28:20;;;;;;;11.02;2.40;;;9.40;72.20;;;;;;5084441;28;20738;-61
2022/11/24 00:30:46;;;;;;;4.90;2.08;;;9.40;72.20;;;;;;5079422;28;20056;-61
2022/11/24 00:33:11;;;;;;;5.93;2.08;;;9.40;72.40;;;;;;5090478;28;20024;-63
2022/11/24 00:35:37;;;;;;;8.45;2.42;;;9.30;72.40;;;;;;5091002;28;20038;-61
2022/11/24 00:38:02;;;;;;;6.18;1.90;;;9.30;72.50;;;;;;5082856;28;20080;-62
2022/11/24 00:40:28;;;;;;;6.35;1.80;;;9.30;72.60;;;;;;5084132;28;20029;-62
2022/11/24 00:42:54;;;;;;;7.53;2.17;;;9.30;72.70;;;;;;5089182;28;20031;-63
2022/11/24 00:45:19;;;;;;;7.18;2.20;;;9.30;72.80;;;;;;5071510;28;20036;-63
2022/11/24 00:47:45;;;;;;;7.13;2.33;;;9.20;72.80;;;;;;5080624;28;20056;-62
2022/11/24 00:50:10;;;;;;;7.30;3.40;;;9.20;72.80;;;;;;5085865;28;20024;-61
2022/11/24 00:52:36;;;;;;;9.60;3.42;;;9.20;72.70;;;;;;5080899;28;20044;-61
2022/11/24 00:55:02;;;;;;;8.30;2.85;;;9.20;72.70;;;;;;5087752;28;20037;-62
2022/11/24 00:57:27;;;;;;;7.72;3.53;;;9.10;72.70;;;;;;5090221;28;20036;-62
2022/11/24 00:59:53;;;;;;;7.18;2.67;;;9.10;72.70;;;;;;5089534;28;20028;-62
2022/11/24 01:02:19;;;;;;;5.07;2.70;;;9.10;72.50;;;;;;5088727;28;20036;-62
2022/11/24 01:04:44;;;;;;;7.32;2.53;;;9.00;72.60;;;;;;5092054;28;20030;-61
2022/11/24 01:07:10;;;;;;;4.97;2.58;;;9.10;72.50;;;;;;5099058;28;20123;-61
2022/11/24 01:09:36;;;;;;;6.32;2.63;;;9.00;72.70;;;;;;5086944;28;20067;-62
2022/11/24 01:12:02;;;;;;;7.93;2.80;;;8.90;72.70;;;;;;5086211;28;20035;-63
2022/11/24 01:14:29;;;;;;;5.78;2.70;;;8.90;73.00;;;;;;5089903;28;20025;-61
2022/11/24 01:16:55;;;;;;;5.53;2.70;;;8.90;72.80;;;;;;5092627;28;20024;-61
2022/11/24 01:19:22;;;;;;;8.18;2.85;;;8.90;73.10;;;;;;5088236;28;20030;-62
2022/11/24 01:21:47;;;;;;;4.30;2.60;;;8.90;73.10;;;;;;5078933;28;20054;-61
2022/11/24 01:24:14;;;;;;;8.82;2.72;;;8.80;73.20;;;;;;5086040;28;20028;-60
2022/11/24 01:26:40;;;;;;;7.55;2.80;;;8.80;73.30;;;;;;5085778;28;20036;-62
2022/11/24 01:29:05;;;;;;;7.93;2.47;;;8.80;73.30;;;;;;5082872;28;20110;-62
2022/11/24 01:31:31;;;;;;;10.60;2.70;;;8.80;73.30;;;;;;5084484;28;20097;-63
2022/11/24 01:33:57;;;;;;;6.35;3.05;;;8.80;73.30;;;;;;5082862;28;20037;-63
2022/11/24 01:36:23;;;;;;;6.93;2.38;;;8.90;73.30;;;;;;5084045;28;20032;-61
2022/11/24 01:38:50;;;;;;;6.68;2.55;;;8.80;73.30;;;;;;5083652;28;20084;-64
2022/11/24 01:41:22;;;;;;;8.68;2.30;;;8.80;73.30;;;;;;5078255;28;20031;-62
2022/11/24 01:43:48;;;;;;;5.93;2.30;;;8.80;73.30;;;;;;5081378;28;20043;-62
2022/11/24 01:46:26;;;;;;;8.05;2.47;;;8.90;73.40;;;;;;5087448;28;20033;-62
2022/11/24 01:49:00;;;;;;;4.00;2.22;;;8.90;73.40;;;;;;5086992;28;20459;-61
2022/11/24 01:51:29;;;;;;;10.77;2.45;;;8.90;73.30;;;;;;5089092;28;20020;-61
2022/11/24 01:54:03;;;;;;;5.90;2.30;;;8.90;73.10;;;;;;5090227;28;20050;-61
2022/11/24 01:56:30;;;;;;;7.30;2.40;;;8.90;73.10;;;;;;5085118;28;20032;-61
2022/11/24 01:58:59;;;;;;;13.07;2.65;;;8.80;73.00;;;;;;5075366;28;20059;-62
2022/11/24 02:01:27;;;;;;;8.90;2.65;;;8.90;73.20;;;;;;5092232;28;20061;-62
2022/11/24 02:03:54;;;;;;;5.82;2.60;;;8.80;73.20;;;;;;5086484;28;20020;-61
2022/11/24 02:06:26;;;;;;;6.53;2.90;;;8.80;73.30;;;;;;5082871;28;20032;-62
2022/11/24 02:09:18;;;;;;;6.30;2.53;;;8.80;73.30;;;;;;5091221;28;20047;-62
2022/11/24 02:11:45;;;;;;;6.28;2.55;;;8.80;73.30;;;;;;5077945;28;20056;-61
2022/11/24 02:14:14;;;;;;;9.75;2.78;;;8.80;72.80;;;;;;5075057;28;20031;-62
2022/11/24 02:16:42;;;;;;;10.23;3.10;;;8.80;73.60;;;;;;5080745;28;20039;-62
2022/11/24 02:19:34;;;;;;;5.57;2.67;;;8.80;73.00;;;;;;5083987;28;20028;-62
2022/11/24 02:22:01;;;;;;;7.45;3.80;;;8.80;73.10;;;;;;5077435;28;20028;-61
2022/11/24 02:24:54;;;;;;;12.05;3.10;;;8.70;73.00;;;;;;5096037;28;20047;-61
2022/11/24 02:27:20;;;;;;;8.57;2.75;;;8.70;73.40;;;;;;5075853;28;20032;-61
2022/11/24 02:29:47;;;;;;;7.57;2.60;;;8.70;73.10;;;;;;5076476;28;20531;-61
2022/11/24 02:32:14;;;;;;;5.95;3.00;;;8.70;73.30;;;;;;5082915;28;20061;-62
2022/11/24 02:34:40;;;;;;;8.00;2.80;;;8.70;73.30;;;;;;5075550;28;20042;-61
2022/11/24 02:37:06;;;;;;;6.00;2.60;;;8.70;73.30;;;;;;5086703;28;20056;-62
2022/11/24 02:39:31;;;;;;;8.23;2.78;;;8.70;73.30;;;;;;5080658;28;20028;-62
2022/11/24 02:42:01;;;;;;;7.57;2.90;;;8.70;73.40;;;;;;5082371;28;20036;-62
2022/11/24 02:44:31;;;;;;;5.93;2.90;;;8.70;73.40;;;;;;5075233;28;20024;-62
2022/11/24 02:47:06;;;;;;;7.00;2.88;;;8.70;73.40;;;;;;5083284;28;20032;-63
2022/11/24 02:49:31;;;;;;;12.60;3.28;;;8.70;73.50;;;;;;5078930;28;20040;-60
2022/11/24 02:51:58;;;;;;;10.25;2.92;;;8.80;73.30;;;;;;5085168;28;20029;-61
2022/11/24 02:54:23;;;;;;;7.20;2.72;;;8.70;73.30;;;;;;5093234;28;20016;-60
2022/11/24 02:56:50;;;;;;;9.02;3.50;;;8.70;73.20;;;;;;5087411;28;20052;-60
2022/11/24 02:59:15;;;;;;;11.82;4.22;;;8.70;73.30;;;;;;5082964;28;20036;-62
2022/11/24 03:01:41;;;;;;;13.40;4.55;;;8.70;73.20;;;;;;5075830;28;20063;-62
2022/11/24 03:04:07;;;;;;;10.18;4.03;;;8.70;73.20;;;;;;5077175;28;20055;-61
2022/11/24 03:06:32;;;;;;;11.73;3.75;;;8.70;73.20;;;;;;5087852;28;20024;-61
2022/11/24 03:08:58;;;;;;;9.35;2.80;;;8.70;73.20;;;;;;5094173;28;20047;-61
2022/11/24 03:11:23;;;;;;;7.40;2.65;;;8.70;73.20;;;;;;5077788;28;20108;-61
2022/11/24 03:13:49;;;;;;;11.20;2.70;;;8.70;73.20;;;;;;5082326;28;20052;-61
2022/11/24 03:16:15;;;;;;;8.07;1.77;;;8.70;73.20;;;;;;5087025;28;20058;-61
2022/11/24 03:18:40;;;;;;;10.18;2.30;;;8.70;73.00;;;;;;5022242;28;20552;-61
2022/11/24 03:21:06;;;;;;;5.72;2.03;;;8.70;73.00;;;;;;5074928;28;20034;-60
2022/11/24 03:23:32;;;;;;;11.35;2.75;;;8.70;73.10;;;;;;5094546;28;20074;-62
2022/11/24 03:26:27;;;;;;;12.38;2.65;;;8.70;73.20;;;;;;5082300;28;20044;-62
2022/11/24 03:28:54;;;;;;;;;;;8.60;73.60;;;;;;5063057;28;20442;-62
2022/11/24 03:31:20;;;;;;;6.90;2.15;;;8.70;73.50;;;;;;5083763;28;19916;-62
2022/11/24 03:33:45;;;;;;;8.18;2.17;;;8.70;72.60;;;;;;5083150;28;20044;-62
2022/11/24 03:36:11;;;;;;;10.20;2.33;;;8.60;72.70;;;;;;5084416;28;20059;-61
2022/11/24 03:38:37;;;;;;;6.95;2.30;;;8.60;72.80;;;;;;5083449;28;20021;-62
2022/11/24 03:41:03;;;;;;;4.22;2.25;;;8.60;72.60;;;;;;5086807;28;20017;-62
2022/11/24 03:43:28;;;;;;;10.10;2.40;;;8.60;72.70;;;;;;5089260;28;20036;-61
2022/11/24 03:45:54;;;;;;;8.38;2.53;;;8.50;72.60;;;;;;5100240;28;20093;-62
2022/11/24 03:48:20;;;;;;;8.00;2.60;;;8.50;72.80;;;;;;5079757;28;20066;-61
2022/11/24 03:50:54;;;;;;;8.68;2.58;;;8.50;72.70;;;;;;5094672;28;20237;-64
2022/11/24 03:53:20;;;;;;;6.13;2.25;;;8.50;73.10;;;;;;5087524;28;20023;-62
2022/11/24 03:55:46;;;;;;;6.15;2.45;;;8.50;73.10;;;;;;5087724;28;20100;-61
2022/11/24 03:58:12;;;;;;;5.80;2.60;;;8.40;73.10;;;;;;5090984;28;20024;-61
2022/11/24 04:00:38;;;;;;;6.65;2.60;;;8.40;73.10;;;;;;5090312;28;20024;-62
2022/11/24 04:03:04;;;;;;;7.93;2.67;;;8.40;73.20;;;;;;5082249;28;20033;-62
2022/11/24 04:05:29;;;;;;;9.10;2.72;;;8.40;73.30;;;;;;5076360;28;20036;-62
2022/11/24 04:07:56;;;;;;;5.60;2.47;;;8.40;73.30;;;;;;5091764;28;20020;-62
2022/11/24 04:10:23;;;;;;;7.15;2.80;;;8.40;73.30;;;;;;5072472;28;20028;-61
2022/11/24 04:12:49;;;;;;;6.07;2.60;;;8.40;73.50;;;;;;5072861;28;20022;-61
2022/11/24 04:15:17;;;;;;;5.20;2.47;;;8.40;73.30;;;;;;5088287;28;20058;-61
2022/11/24 04:17:44;;;;;;;6.30;2.92;;;8.30;73.40;;;;;;5089369;28;20036;-61
2022/11/24 04:20:11;;;;;;;6.90;2.97;;;8.30;73.40;;;;;;5073890;28;20021;-62
2022/11/24 04:22:37;;;;;;;4.13;2.75;;;8.30;73.50;;;;;;5086795;28;20082;-63
2022/11/24 04:25:04;;;;;;;5.43;2.60;;;8.30;73.50;;;;;;5090420;28;20747;-61
2022/11/24 04:27:32;;;;;;;4.60;2.67;;;8.30;73.40;;;;;;5075322;28;20023;-61
2022/11/24 04:29:57;;;;;;;6.38;3.08;;;8.30;73.50;;;;;;5080385;28;20058;-60
2022/11/24 04:32:23;;;;;;;5.47;3.20;;;8.20;73.50;;;;;;5088765;28;20140;-62
2022/11/24 04:34:49;;;;;;;5.47;3.47;;;8.20;73.70;;;;;;5095550;28;20043;-61
2022/11/24 04:37:14;;;;;;;6.40;3.90;;;8.30;74.00;;;;;;5074265;28;20041;-61
2022/11/24 04:39:40;;;;;;;5.80;3.80;;;8.20;73.90;;;;;;5083003;28;20050;-60
2022/11/24 04:42:06;;;;;;;5.72;4.00;;;8.30;74.10;;;;;;5078407;28;20052;-61
2022/11/24 04:44:31;;;;;;;6.60;4.13;;;8.30;74.40;;;;;;5092603;28;20573;-63
2022/11/24 04:46:57;;;;;;;5.00;4.13;;;8.30;74.30;;;;;;5077715;28;20063;-61
2022/11/24 04:49:23;;;;;;;7.30;4.70;;;8.30;74.20;;;;;;5088001;28;20048;-62
2022/11/24 04:51:48;;;;;;;7.35;4.68;;;8.30;74.40;;;;;;5076710;28;20076;-61
2022/11/24 04:54:14;;;;;;;7.65;4.50;;;8.30;74.20;;;;;;5092805;28;20028;-61
2022/11/24 04:56:42;;;;;;;5.95;4.20;;;8.30;74.20;;;;;;5078272;28;20044;-60
2022/11/24 04:59:14;;;;;;;6.10;4.20;;;8.30;74.30;;;;;;5090507;28;20020;-62
2022/11/24 05:01:41;;;;;;;9.00;4.00;;;8.30;74.20;;;;;;5088006;28;20035;-61
2022/11/24 05:04:12;;;;;;;7.22;4.20;;;8.30;74.40;;;;;;5087678;28;20690;-62
2022/11/24 05:06:38;;;;;;;4.70;3.92;;;8.30;74.40;;;;;;5085778;28;20031;-61
2022/11/24 05:09:05;;;;;;;6.65;3.95;;;8.30;74.40;;;;;;5092857;28;20024;-61
2022/11/24 05:11:31;;;;;;;7.85;3.63;;;8.40;74.50;;;;;;5085401;28;20586;-61
2022/11/24 05:13:56;;;;;;;6.07;3.67;;;8.40;74.40;;;;;;5083323;28;20032;-61
2022/11/24 05:16:22;;;;;;;8.18;3.88;;;8.40;74.50;;;;;;5090356;28;20032;-63
2022/11/24 05:18:48;;;;;;;7.00;4.20;;;8.40;74.60;;;;;;5026432;28;20023;-62
2022/11/24 05:21:13;;;;;;;6.85;3.95;;;8.40;74.70;;;;;;5082479;28;20031;-62
2022/11/24 05:23:39;;;;;;;6.82;3.95;;;8.40;74.30;;;;;;5083228;28;20021;-61
2022/11/24 05:26:05;;;;;;;7.18;3.90;;;8.40;74.30;;;;;;5080012;28;20021;-62
2022/11/24 05:28:31;;;;;;;5.95;3.70;;;8.40;74.30;;;;;;5082216;28;20032;-63
2022/11/24 05:31:01;;;;;;;5.15;3.58;;;8.40;74.30;;;;;;5086580;28;20032;-61
2022/11/24 05:33:28;;;;;;;7.10;3.97;;;8.40;74.30;;;;;;5083843;28;20035;-62
2022/11/24 05:35:58;;;;;;;9.35;4.72;;;8.40;74.30;;;;;;5081033;28;20045;-63
2022/11/24 05:38:25;;;;;;;8.15;4.35;;;8.40;74.00;;;;;;5073461;28;20058;-62
2022/11/24 05:40:51;;;;;;;9.93;5.40;;;8.40;73.90;;;;;;5086589;28;20042;-62
2022/11/24 05:43:17;;;;;;;10.93;5.97;;;8.40;73.90;;;;;;5081859;28;20107;-61
2022/11/24 05:45:44;;;;;;;16.77;7.90;;;8.40;73.80;;;;;;5083904;28;20055;-62
2022/11/24 05:48:13;;;;;;;19.52;8.63;;;8.40;73.80;;;;;;5074585;28;20123;-62
2022/11/24 05:50:39;;;;;;;17.63;8.38;;;8.30;73.80;;;;;;5084799;28;20036;-62
2022/11/24 05:53:07;;;;;;;19.55;8.93;;;8.30;73.70;;;;;;5091927;28;20031;-63
2022/11/24 05:55:33;;;;;;;17.70;8.60;;;8.30;73.60;;;;;;5088246;28;20410;-61
2022/11/24 05:58:00;;;;;;;18.60;8.77;;;8.20;73.70;;;;;;5097348;28;20052;-62
2022/11/24 06:00:26;;;;;;;18.23;8.70;;;8.20;73.70;;;;;;5084317;28;20860;-61
2022/11/24 06:02:52;;;;;;;18.75;8.88;;;8.20;73.80;;;;;;5079831;28;20024;-61
2022/11/24 06:05:18;;;;;;;16.88;8.65;;;8.10;73.80;;;;;;5073947;28;20032;-62
2022/11/24 06:07:44;;;;;;;15.23;8.13;;;8.10;73.90;;;;;;5081272;28;21770;-63
2022/11/24 06:10:10;;;;;;;16.58;8.05;;;8.10;74.00;;;;;;5083945;28;20028;-62
2022/11/24 06:12:35;;;;;;;13.55;6.68;;;8.10;74.00;;;;;;5083223;28;20527;-62
2022/11/24 06:15:01;;;;;;;13.77;7.05;;;8.10;74.00;;;;;;5076646;28;20040;-61
2022/11/24 06:17:27;;;;;;;11.45;6.32;;;8.10;74.60;;;;;;5083303;28;20029;-61
2022/11/24 06:19:55;;;;;;;14.27;7.22;;;8.10;74.00;;;;;;5083142;28;20024;-60
2022/11/24 06:22:21;;;;;;;14.20;6.82;;;8.10;74.00;;;;;;5088432;28;20047;-62
2022/11/24 06:24:46;;;;;;;16.02;7.15;;;8.10;74.00;;;;;;5073065;28;20032;-62
2022/11/24 06:27:13;;;;;;;16.52;6.43;;;8.00;73.90;;;;;;5075464;28;20392;-61
2022/11/24 06:29:38;;;;;;;16.00;7.07;;;8.00;74.00;;;;;;5084920;28;20040;-61
2022/11/24 06:32:05;;;;;;;19.00;8.95;;;8.00;74.10;;;;;;5095148;28;20036;-60
2022/11/24 06:34:30;;;;;;;15.40;7.63;;;8.00;74.00;;;;;;5085940;28;20037;-62
2022/11/24 06:36:56;;;;;;;19.60;7.88;;;8.00;73.90;;;;;;5076372;28;20036;-61
2022/11/24 06:39:22;;;;;;;16.23;6.80;;;8.00;73.90;;;;;;5081409;28;20075;-62
2022/11/24 06:41:51;;;;;;;13.18;6.47;;;8.00;74.00;;;;;;5068392;28;20016;-62
2022/11/24 06:44:17;;;;;;;15.50;6.63;;;8.00;74.00;;;;;;5079623;28;20044;-61
2022/11/24 06:46:43;;;;;;;13.43;6.45;;;7.90;74.00;;;;;;5087344;28;20077;-63
2022/11/24 06:49:09;;;;;;;17.10;7.00;;;7.90;74.20;;;;;;5081566;28;20061;-61
2022/11/24 06:51:34;;;;;;;14.88;6.57;;;7.90;74.20;;;;;;5088698;28;20029;-61
2022/11/24 06:54:00;;;;;;;13.95;6.55;;;7.90;74.20;;;;;;5080463;28;20024;-62
2022/11/24 06:56:26;;;;;;;13.77;6.70;;;8.00;74.50;;;;;;5072051;28;20126;-62
2022/11/24 06:58:53;;;;;;;23.48;9.07;;;8.00;74.50;;;;;;5080851;28;20080;-61
2022/11/24 07:01:24;;;;;;;19.02;8.75;;;8.00;74.60;;;;;;5086721;28;20020;-62
2022/11/24 07:03:51;;;;;;;18.00;7.53;;;8.00;74.50;;;;;;5076345;28;20033;-61
2022/11/24 07:06:18;;;;;;;13.93;6.63;;;8.00;74.30;;;;;;5086010;28;20091;-60
2022/11/24 07:08:44;;;;;;;12.30;6.53;;;8.00;74.40;;;;;;5087663;28;20024;-62
2022/11/24 07:11:14;;;;;;;15.63;6.22;;;8.00;74.30;;;;;;5075213;28;20048;-63
2022/11/24 07:13:43;;;;;;;16.15;6.45;;;8.10;74.50;;;;;;5067677;28;20051;-64
2022/11/24 07:16:21;;;;;;;19.73;7.40;;;8.10;74.60;;;;;;5076846;28;20032;-62
2022/11/24 07:18:50;;;;;;;14.68;6.15;;;8.10;74.80;;;;;;5080348;28;20062;-63
2022/11/24 07:21:16;;;;;;;14.40;5.82;;;8.10;74.70;;;;;;5092110;28;20084;-63
2022/11/24 07:23:42;;;;;;;12.02;5.10;;;8.20;74.60;;;;;;5096002;28;20028;-63
2022/11/24 07:26:09;;;;;;;11.93;4.97;;;8.20;74.70;;;;;;5092592;28;20162;-64
2022/11/24 07:28:36;;;;;;;9.77;4.35;;;8.20;74.70;;;;;;5086460;28;20043;-62
2022/11/24 07:31:10;;;;;;;14.50;5.25;;;8.30;74.70;;;;;;5079121;28;20020;-63
2022/11/24 07:33:36;;;;;;;20.65;4.63;;;8.30;74.80;;;;;;5081560;28;20032;-63
2022/11/24 07:36:03;;;;;;;13.52;4.70;;;8.30;74.40;;;;;;5083941;28;20117;-65
2022/11/24 07:38:29;;;;;;;9.25;4.30;;;8.40;74.50;;;;;;5086075;28;20103;-63
2022/11/24 07:41:08;;;;;;;10.93;4.50;;;8.40;74.60;;;;;;5081608;28;20016;-63
2022/11/24 07:43:35;;;;;;;13.38;4.22;;;8.40;74.70;;;;;;5080902;28;20029;-63
2022/11/24 07:46:02;;;;;;;16.73;4.57;;;8.40;74.50;;;;;;5085885;28;20055;-63
2022/11/24 07:48:28;;;;;;;8.73;3.78;;;8.50;74.70;;;;;;5085923;28;20047;-63
2022/11/24 07:50:53;;;;;;;13.00;3.50;;;8.50;74.80;;;;;;5092206;28;20028;-63
2022/11/24 07:53:19;;;;;;;13.68;3.53;;;8.50;74.70;;;;;;5083994;28;20028;-63
2022/11/24 07:55:53;;;;;;;14.60;3.28;;;8.50;74.60;;;;;;5078572;28;20115;-62
2022/11/24 07:58:19;;;;;;;8.05;2.95;;;8.60;74.90;;;;;;5076970;28;20029;-63
2022/11/24 08:00:44;;;;;;;18.45;3.60;;;8.60;74.80;;;;;;5093356;28;20039;-63
2022/11/24 08:03:10;;;;;;;9.73;3.03;;;8.70;74.90;;;;;;5091320;28;20032;-63
2022/11/24 08:05:36;;;;;;;13.95;3.05;;;8.70;74.90;;;;;;5080488;28;20028;-62
2022/11/24 08:08:01;;;;;;;10.40;2.55;;;8.80;75.10;;;;;;5077906;28;20048;-64
2022/11/24 08:10:27;;;;;;;15.00;3.63;;;8.80;75.20;;;;;;5076323;28;20103;-62
2022/11/24 08:12:53;;;;;;;16.75;2.60;;;8.90;75.20;;;;;;5082001;28;20837;-63
2022/11/24 08:15:19;;;;;;;15.60;2.78;;;9.00;75.20;;;;;;5078933;28;20037;-64
2022/11/24 08:17:44;;;;;;;13.90;3.20;;;9.10;75.30;;;;;;5099581;28;20028;-64
2022/11/24 08:20:10;;;;;;;14.05;2.90;;;9.10;75.00;;;;;;5086869;28;20057;-63
2022/11/24 08:22:36;;;;;;;10.45;3.10;;;9.20;74.80;;;;;;5083333;28;20031;-63
2022/11/24 08:25:01;;;;;;;16.55;3.05;;;9.30;74.80;;;;;;5088214;28;20055;-63
2022/11/24 08:27:29;;;;;;;15.43;3.80;;;9.30;74.70;;;;;;5076441;28;20083;-64
2022/11/24 08:29:54;;;;;;;12.77;3.58;;;9.40;75.00;;;;;;5076399;28;20036;-63
2022/11/24 08:32:20;;;;;;;13.43;3.10;;;9.40;74.70;;;;;;5091328;28;20016;-63
2022/11/24 08:34:46;;;;;;;11.45;3.28;;;9.40;74.50;;;;;;5081883;28;20060;-65
2022/11/24 08:37:11;;;;;;;15.02;3.28;;;9.40;74.50;;;;;;5090736;28;20035;-63
2022/11/24 08:39:37;;;;;;;10.63;2.95;;;9.40;74.60;;;;;;5083661;28;20024;-64
2022/11/24 08:42:03;;;;;;;13.55;3.35;;;9.40;74.40;;;;;;5092977;28;20076;-63
2022/11/24 08:44:28;;;;;;;13.45;3.58;;;9.40;74.40;;;;;;5091233;28;20032;-64
2022/11/24 08:46:54;;;;;;;15.32;3.38;;;9.50;74.70;;;;;;5075949;28;20021;-64
2022/11/24 08:49:21;;;;;;;9.30;2.90;;;9.50;74.40;;;;;;5084586;28;20048;-62
2022/11/24 08:51:47;;;;;;;10.23;3.40;;;9.50;74.50;;;;;;5094604;28;20033;-63
2022/11/24 08:54:14;;;;;;;11.38;2.90;;;9.50;74.60;;;;;;5086681;28;20021;-62
2022/11/24 08:56:40;;;;;;;12.65;3.80;;;9.50;74.60;;;;;;5078633;28;20056;-63
2022/11/24 08:59:06;;;;;;;18.40;4.50;;;9.50;74.50;;;;;;5086410;28;20024;-63
2022/11/24 09:01:32;;;;;;;19.05;3.97;;;9.60;74.60;;;;;;5083359;28;20041;-64
2022/11/24 09:03:58;;;;;;;13.45;3.55;;;9.60;74.40;;;;;;5087735;28;20077;-63
2022/11/24 09:06:26;;;;;;;13.95;3.45;;;9.60;75.20;;;;;;5090517;28;20028;-62
2022/11/24 09:08:55;;;;;;;14.18;3.83;;;9.60;74.70;;;;;;5080209;28;20458;-63
2022/11/24 09:11:24;;;;;;;11.25;3.40;;;9.60;74.80;;;;;;5086880;28;20081;-63
2022/11/24 09:13:50;;;;;;;11.65;3.75;;;9.70;74.90;;;;;;5107380;28;20028;-63
2022/11/24 09:16:18;;;;;;;8.73;3.03;;;9.70;74.70;;;;;;5078484;28;20037;-64
2022/11/24 09:18:45;;;;;;;11.15;2.97;;;9.70;74.60;;;;;;5015782;28;20024;-63
2022/11/24 09:21:19;;;;;;;10.95;3.33;;;9.80;74.70;;;;;;5081753;28;20031;-63
2022/11/24 09:23:50;;;;;;;7.80;2.70;;;9.80;74.70;;;;;;5076218;28;20475;-63
2022/11/24 09:26:18;;;;;;;9.43;2.38;;;9.80;74.50;;;;;;5075185;28;20363;-64
2022/11/24 09:28:44;;;;;;;10.68;2.47;;;9.90;74.40;;;;;;5079444;28;20020;-63
2022/11/24 09:31:12;;;;;;;6.40;2.25;;;9.90;74.40;;;;;;5085800;28;20029;-63
2022/11/24 09:33:39;;;;;;;12.07;2.85;;;9.90;74.50;;;;;;5073346;28;20045;-63
2022/11/24 09:36:05;;;;;;;5.85;2.53;;;10.00;74.40;;;;;;5086213;28;20040;-62
2022/11/24 09:38:32;;;;;;;11.57;2.50;;;10.00;74.40;;;;;;5092241;28;20044;-63
2022/11/24 09:41:16;;;;;;;6.93;2.17;;;10.00;74.50;;;;;;5099607;28;20031;-63
2022/11/24 09:43:51;;;;;;;;;;;10.10;74.60;;;;;;5079907;28;20057;-63
2022/11/24 09:46:31;;;;;;;4.60;2.35;;;10.10;74.50;;;;;;5091596;28;19912;-64
2022/11/24 09:48:59;;;;;;;7.63;1.98;;;10.20;74.10;;;;;;5069812;28;20389;-63
2022/11/24 09:51:30;;;;;;;5.82;1.90;;;10.20;74.00;;;;;;5093368;28;20025;-63
2022/11/24 09:54:17;;;;;;;4.70;1.52;;;10.30;74.10;;;;;;5071546;28;20024;-64
2022/11/24 09:56:44;;;;;;;4.07;1.40;;;10.30;74.00;;;;;;5073630;28;20047;-63
2022/11/24 09:59:16;;;;;;;6.10;1.35;;;10.40;73.70;;;;;;5084231;28;20024;-63
2022/11/24 10:01:44;;;;;;;9.07;2.65;;;10.40;73.50;;;;;;5077700;28;20112;-63
2022/11/24 10:04:29;;;;;;;6.78;1.65;;;10.40;73.30;;;;;;5090300;28;20052;-63
2022/11/24 10:07:37;;;;;;;9.25;3.50;;;10.40;73.30;;;;;;5079499;28;20100;-64
2022/11/24 10:10:05;;;;;;;4.70;2.20;;;10.40;73.50;;;;;;5040967;28;20051;-64
2022/11/24 10:13:08;;;;;;;10.20;2.10;;;10.40;73.30;;;;;;5078377;28;20096;-63
2022/11/24 10:15:42;;;;;;;6.30;1.10;;;10.40;72.80;;;;;;5082407;28;20059;-64
2022/11/24 10:18:41;;;;;;;6.80;1.30;;;10.40;72.80;;;;;;5077676;28;20048;-62
2022/11/24 10:21:33;;;;;;;2.97;1.02;;;10.30;72.90;;;;;;5071772;28;20091;-63
2022/11/24 10:24:34;;;;;;;4.30;1.13;;;10.30;72.90;;;;;;5082635;28;20086;-64
2022/11/24 10:27:09;;;;;;;3.30;1.10;;;10.40;73.00;;;;;;5074276;28;20116;-64
2022/11/24 10:29:42;;;;;;;5.15;1.38;;;10.40;73.00;;;;;;5090448;28;20435;-63
2022/11/24 10:32:22;;;;;;;6.53;1.20;;;10.40;73.20;;;;;;5087149;28;20024;-64
2022/11/24 10:34:49;;;;;;;4.90;1.35;;;10.40;73.20;;;;;;5075593;28;20025;-63
2022/11/24 10:37:21;;;;;;;4.40;1.20;;;10.40;73.00;;;;;;5072886;28;20045;-63
2022/11/24 10:40:23;;;;;;;3.90;1.40;;;10.40;73.00;;;;;;5086087;28;20025;-63
2022/11/24 10:42:50;;;;;;;3.45;1.15;;;10.40;73.20;;;;;;5081466;28;20055;-64
2022/11/24 10:45:19;;;;;;;2.60;1.23;;;10.50;73.10;;;;;;5102275;28;20028;-63
2022/11/24 10:47:45;;;;;;;4.00;1.40;;;10.50;73.00;;;;;;5089081;28;20029;-63
2022/11/24 10:50:21;;;;;;;3.80;1.60;;;10.50;73.10;;;;;;5092113;28;20043;-63
2022/11/24 10:52:57;;;;;;;5.90;1.70;;;10.50;73.30;;;;;;5081426;28;20025;-64
2022/11/24 10:55:22;;;;;;;4.97;1.80;;;10.50;73.50;;;;;;5096370;28;20062;-64
2022/11/24 10:57:48;;;;;;;3.03;1.55;;;10.60;73.70;;;;;;5079294;28;20025;-63
2022/11/24 11:00:20;;;;;;;3.83;1.20;;;10.60;73.60;;;;;;5092172;28;20516;-66
2022/11/24 11:03:08;;;;;;;3.80;1.10;;;10.70;73.40;;;;;;5069865;28;20029;-64
2022/11/24 11:05:43;;;;;;;3.30;1.33;;;10.70;73.30;;;;;;5075354;28;20021;-65
2022/11/24 11:08:19;;;;;;;1.63;1.02;;;10.80;73.00;;;;;;5084814;28;20383;-64
2022/11/24 11:10:47;;;;;;;4.20;1.27;;;10.80;73.00;;;;;;5084992;28;20032;-63
2022/11/24 11:13:22;;;;;;;1.52;1.00;;;10.80;72.90;;;;;;5101353;28;20500;-63
2022/11/24 11:15:48;;;;;;;1.70;1.00;;;10.80;72.90;;;;;;5091069;28;20036;-63
2022/11/24 11:18:16;;;;;;;3.00;1.52;;;10.80;72.60;;;;;;5087384;28;20087;-64
2022/11/24 11:20:56;;;;;;;4.53;2.00;;;10.80;72.60;;;;;;5086796;28;20518;-62
2022/11/24 11:23:32;;;;;;;2.80;1.27;;;10.80;72.60;;;;;;5095607;28;20024;-64
2022/11/24 11:26:23;;;;;;;2.28;1.00;;;10.80;72.70;;;;;;5092228;28;20029;-63
2022/11/24 11:29:02;;;;;;;1.77;1.15;;;10.80;72.50;;;;;;5069468;28;20118;-65
2022/11/24 11:31:30;;;;;;;2.97;1.67;;;10.80;72.40;;;;;;5077685;28;20029;-62
2022/11/24 11:34:08;;;;;;;3.70;2.40;;;10.90;72.70;;;;;;5095083;28;20035;-64
2022/11/24 11:36:49;;;;;;;3.47;1.50;;;10.90;73.50;;;;;;5082173;28;20037;-64
2022/11/24 11:39:20;;;;;;;2.08;1.20;;;11.00;72.70;;;;;;5088667;28;20024;-63
2022/11/24 11:41:48;;;;;;;3.03;1.40;;;11.00;72.80;;;;;;5095605;28;20127;-64
2022/11/24 11:44:38;;;;;;;2.47;1.25;;;11.10;72.70;;;;;;5088903;28;20017;-63
2022/11/24 11:47:19;;;;;;;1.83;1.00;;;11.10;72.60;;;;;;5079269;28;20028;-65
2022/11/24 11:49:47;;;;;;;1.73;1.00;;;11.10;72.20;;;;;;5090259;28;20115;-64
2022/11/24 11:52:51;;;;;;;2.03;1.00;;;11.20;72.40;;;;;;5093264;28;20028;-64
2022/11/24 11:55:31;;;;;;;3.88;1.60;;;11.20;72.00;;;;;;5081598;28;20033;-63
2022/11/24 11:58:09;;;;;;;1.73;1.30;;;11.20;72.00;;;;;;5090289;28;20091;-62
2022/11/24 12:00:44;;;;;;;1.98;1.38;;;11.20;72.00;;;;;;5092153;28;20043;-63
2022/11/24 12:03:23;;;;;;;5.07;3.20;;;11.20;72.20;;;;;;5079120;28;20028;-64
2022/11/24 12:06:01;;;;;;;3.65;1.30;;;11.20;72.20;;;;;;5086951;28;20039;-63
2022/11/24 12:08:30;;;;;;;2.13;1.13;;;11.20;72.10;;;;;;5085318;28;20043;-63
2022/11/24 12:11:08;;;;;;;1.25;0.90;;;11.30;72.20;;;;;;5081037;28;20021;-63
2022/11/24 12:14:06;;;;;;;1.60;1.02;;;11.30;72.00;;;;;;5086814;28;20024;-63
2022/11/24 12:16:37;;;;;;;2.40;1.10;;;11.30;71.40;;;;;;5083178;28;20101;-62
2022/11/24 12:19:09;;;;;;;2.55;1.30;;;11.30;71.50;;;;;;4987571;28;20056;-64
2022/11/24 12:21:49;;;;;;;3.13;1.48;;;11.30;71.60;;;;;;5090020;28;20031;-63
2022/11/24 12:24:29;;;;;;;5.75;1.63;;;11.30;71.00;;;;;;5094362;28;20021;-63
2022/11/24 12:27:03;;;;;;;1.98;1.13;;;11.30;71.00;;;;;;5076870;28;20395;-64
2022/11/24 12:29:49;;;;;;;3.40;1.48;;;11.20;71.20;;;;;;5084966;28;20020;-63
2022/11/24 12:32:56;;;;;;;2.80;1.45;;;11.30;71.00;;;;;;5093354;28;20024;-63
2022/11/24 12:35:32;;;;;;;3.42;1.40;;;11.30;71.10;;;;;;5056320;28;20045;-64
2022/11/24 12:38:19;;;;;;;2.67;1.50;;;11.30;71.20;;;;;;5059637;28;20104;-63
2022/11/24 12:40:44;;;;;;;6.18;1.50;;;11.30;71.40;;;;;;5057649;28;20033;-63
2022/11/24 12:43:37;;;;;;;4.10;1.60;;;11.30;71.10;;;;;;5060256;28;20106;-64
2022/11/24 12:46:03;;;;;;;4.55;1.80;;;11.30;71.00;;;;;;5056051;28;20033;-63
2022/11/24 12:49:02;;;;;;;6.03;1.95;;;11.30;71.40;;;;;;5068061;28;20376;-64
2022/11/24 12:51:52;;;;;;;4.28;1.70;;;11.40;70.80;;;;;;5056139;28;20063;-64
2022/11/24 12:54:20;;;;;;;7.35;1.88;;;11.40;70.80;;;;;;5063376;28;20040;-63
2022/11/24 12:56:48;;;;;;;4.03;1.88;;;11.40;70.40;;;;;;5071119;28;20036;-65
2022/11/24 13:03:17;;;;;;;4.10;1.90;;;11.40;70.70;;;;;;6175930;22;20044;-60
2022/11/24 13:06:00;;;;;;;4.85;1.85;;;11.50;70.70;;;;;;5103457;28;20031;-62
2022/11/24 13:08:28;;;;;;;4.65;1.73;;;11.60;71.10;;;;;;5082944;28;20028;-61